Time;durP1;ratioP1;P1;durP2;ratioP2;P2;SDS_P1;SDS_P2;PMS_P1;PMS_P2;Temp;Humidity;BMP_temperature;BMP_pressure;BME280_temperature;BME280_humidity;BME280_pressure;Samples;Min_cycle;Max_cycle;Signal;HPM_P1;HPM_P2
2022/11/25 11:46:18;;;;;;;;;;;;;;;;;;6215466;23;19991;-84
2022/11/25 11:49:01;;;;;;;;;;;;;;;;;;6217310;23;19915;-79
2022/11/25 11:51:35;;;;;;;;;;;;;;;;;;6217249;23;19986;-81
2022/11/25 11:54:03;;;;;;;;;;;;;;;;;;6218655;23;19934;-81
2022/11/25 11:56:38;;;;;;;;;;;;;;;;;;6190421;23;20339;-80
2022/11/25 11:59:11;;;;;;;;;;;;;;;;;;6217148;23;19912;-80
2022/11/25 12:01:45;;;;;;;;;;;;;;;;;;6217255;23;19986;-79
2022/11/25 12:04:25;;;;;;;;;;;;;;;;;;6217053;23;19966;-79
2022/11/25 12:07:02;;;;;;;;;;;;;;;;;;6218606;23;19912;-80
2022/11/25 12:09:29;;;;;;;;;;;;;;;;;;6217368;23;20070;-80
2022/11/25 12:11:57;;;;;;;;;;;;;;;;;;6190247;23;19919;-81
2022/11/25 12:14:43;;;;;;;;;;;;;;;;;;6217017;23;19969;-77
2022/11/25 12:17:22;;;;;;;;;;;;;;;;;;6215684;23;19912;-78
2022/11/25 12:19:50;;;;;;;;;;;;;;;;;;6216876;23;19912;-81
2022/11/25 12:22:22;;;;;;;;;;;;;;;;;;6190320;23;19912;-82
2022/11/25 12:24:55;;;;;;;;;;;;;;;;;;6217636;23;19915;-79
2022/11/25 12:27:32;;;;;;;;;;;;;;;;;;6190339;23;19995;-79
2022/11/25 12:29:58;;;;;;;;;;;;;;;;;;6216984;23;20342;-79
2022/11/25 12:32:29;;;;;;;;;;;;;;;;;;6190504;23;19912;-78
2022/11/25 12:35:01;;;;;;;;;;;;;;;;;;6217082;23;19935;-79
2022/11/25 12:37:31;;;;;;;;;;;;;;;;;;6216854;23;19919;-79
2022/11/25 12:40:03;;;;;;;;;;;;;;;;;;6216746;23;19931;-79
2022/11/25 12:42:30;;;;;;;;;;;;;;;;;;6217096;23;19919;-83
2022/11/25 12:45:00;;;;;;;;;;;;;;;;;;6217469;23;19966;-79
2022/11/25 12:47:25;;;;;;;;;;;;;;;;;;6216843;23;19912;-79
2022/11/25 12:49:52;;;;;;;;;;;;;;;;;;6216936;23;19919;-80
2022/11/25 12:52:36;;;;;;;;;;;;;;;;;;6217093;23;19915;-79
2022/11/25 12:55:17;;;;;;;;;;;;;;;;;;6216790;23;19919;-80
2022/11/25 12:58:01;;;;;;;;;;;;;;;;;;6189789;23;19987;-79
2022/11/25 13:00:33;;;;;;;;;;;;;;;;;;6216644;23;19919;-79
2022/11/25 13:03:17;;;;;;;;;;;;;;;;;;6216550;23;19912;-79
2022/11/25 13:05:48;;;;;;;;;;;;;;;;;;6216676;23;20002;-79
2022/11/25 13:08:20;;;;;;;;;;;;;;;;;;6216491;23;19911;-81
2022/11/25 13:10:51;;;;;;;;;;;;;;;;;;6216813;23;20044;-85
2022/11/25 13:13:19;;;;;;;;;;;;;;;;;;6216760;23;19912;-84
2022/11/25 13:15:47;;;;;;;;;;;;;;;;;;6216435;23;19939;-84
2022/11/25 13:18:15;;;;;;;;;;;;;;;;;;6216463;23;20235;-84
2022/11/25 13:20:42;;;;;;;;;;;;;;;;;;6216464;23;20229;-84
2022/11/25 13:23:21;;;;;;;;;;;;;;;;;;6216737;23;19912;-83
2022/11/25 13:25:48;;;;;;;;;;;;;;;;;;6216390;23;19916;-84
2022/11/25 13:28:29;;;;;;;;;;;;;;;;;;6216513;23;19912;-84
2022/11/25 18:37:16;;;;;;;;;;;;;;;;;;6140240;23;20005;-81
2022/11/25 18:39:41;;;;;;;;;;;;;;;;;;6158075;23;20309;-81
2022/11/25 18:42:07;;;;;;;;;;;;;;;;;;6158008;23;19908;-81
2022/11/25 18:44:36;;;;;;;;;;;;;;;;;;6157857;23;19909;-81
2022/11/25 18:47:03;;;;;;;;;;;;;;;;;;6158429;23;19944;-81
2022/11/25 18:49:28;;;;;;;;;;;;;;;;;;6157897;23;20403;-81
2022/11/25 18:51:54;;;;;;;;;;;;;;;;;;6158439;23;19948;-79
2022/11/25 18:54:19;;;;;;;;;;;;;;;;;;6159091;23;19908;-80
2022/11/25 18:56:48;;;;;;;;;;;;;;;;;;6157925;23;19919;-82
2022/11/25 18:59:16;;;;;;;;;;;;;;;;;;6158206;23;19909;-82
2022/11/25 19:01:41;;;;;;;;;;;;;;;;;;6158563;23;19947;-81
2022/11/25 19:04:11;;;;;;;;;;;;;;;;;;6158751;23;19908;-82
2022/11/25 19:06:37;;;;;;;;;;;;;;;;;;6157848;23;19963;-82
2022/11/25 19:09:02;;;;;;;;;;;;;;;;;;6156413;23;19912;-80
2022/11/25 19:11:30;;;;;;;;;;;;;;;;;;6158009;23;19916;-80
2022/11/25 19:14:03;;;;;;;;;;;;;;;;;;6157578;23;19912;-82
2022/11/25 19:16:29;;;;;;;;;;;;;;;;;;6158142;23;20312;-80
2022/11/25 19:18:54;;;;;;;;;;;;;;;;;;6157859;23;19912;-86
2022/11/25 20:47:16;;;;;;;;;;;;;;;;;;6207348;23;20315;-84
2022/11/25 20:49:42;;;;;;;;;;;;;;;;;;6189859;23;19912;-83
2022/11/25 20:52:19;;;;;;;;;;;;;;;;;;6216493;23;20049;-82
2022/11/25 20:54:45;;;;;;;;;;;;;;;;;;6216519;23;20236;-82
2022/11/25 20:57:10;;;;;;;;;;;;;;;;;;6216450;23;19999;-83
2022/11/25 20:59:36;;;;;;;;;;;;;;;;;;6216551;23;19988;-81
2022/11/25 21:02:01;;;;;;;;;;;;;;;;;;6216422;23;19930;-82
2022/11/25 21:04:27;;;;;;;;;;;;;;;;;;6216380;23;19975;-83
2022/11/25 21:06:53;;;;;;;;;;;;;;;;;;6216566;23;20382;-82
2022/11/25 21:09:22;;;;;;;;;;;;;;;;;;6216496;23;19915;-82
2022/11/25 21:11:47;;;;;;;;;;;;;;;;;;6216558;23;19916;-83
2022/11/25 21:14:17;;;;;;;;;;;;;;;;;;6218087;23;19911;-82
2022/11/25 21:16:43;;;;;;;;;;;;;;;;;;6218611;23;19916;-81
2022/11/25 21:19:08;;;;;;;;;;;;;;;;;;6218527;23;19915;-81
2022/11/25 21:21:35;;;;;;;;;;;;;;;;;;6218479;23;19904;-84
2022/11/25 21:24:04;;;;;;;;;;;;;;;;;;6218861;23;20350;-84
2022/11/25 21:26:30;;;;;;;;;;;;;;;;;;6218493;23;19935;-84
2022/11/25 21:28:56;;;;;;;;;;;;;;;;;;6191561;23;19958;-83
2022/11/25 21:31:23;;;;;;;;;;;;;;;;;;6218587;23;19915;-83
2022/11/25 21:33:49;;;;;;;;;;;;;;;;;;6218437;23;19907;-84
2022/11/25 21:36:40;;;;;;;;;;;;;;;;;;6218212;23;19915;-84
2022/11/25 21:39:24;;;;;;;;;;;;;;;;;;6211046;23;19962;-84
2022/11/25 21:41:50;;;;;;;;;;;;;;;;;;6218488;23;19912;-83
2022/11/25 21:44:45;;;;;;;;;;;;;;;;;;6218233;23;20299;-84
2022/11/25 21:47:12;;;;;;;;;;;;;;;;;;6186202;23;19919;-84
2022/11/25 21:49:37;;;;;;;;;;;;;;;;;;6218127;23;20323;-83
2022/11/25 21:52:03;;;;;;;;;;;;;;;;;;6191470;23;19915;-84
2022/11/25 21:54:28;;;;;;;;;;;;;;;;;;6218197;23;19948;-85
2022/11/25 21:56:53;;;;;;;;;;;;;;;;;;6191598;23;19978;-85
2022/11/25 21:59:19;;;;;;;;;;;;;;;;;;6218430;23;20286;-85
2022/11/25 22:01:45;;;;;;;;;;;;;;;;;;6218118;23;19907;-86
2022/11/25 22:04:14;;;;;;;;;;;;;;;;;;6218246;23;20302;-85
2022/11/25 22:06:39;;;;;;;;;;;;;;;;;;6191910;23;20340;-84
2022/11/25 22:09:05;;;;;;;;;;;;;;;;;;6191469;23;19940;-85
2022/11/25 22:11:31;;;;;;;;;;;;;;;;;;6191629;23;19983;-85
2022/11/25 22:13:58;;;;;;;;;;;;;;;;;;6218093;23;19912;-84
2022/11/25 22:16:31;;;;;;;;;;;;;;;;;;6218227;23;20351;-84
2022/11/25 22:18:57;;;;;;;;;;;;;;;;;;6191347;23;20323;-83
2022/11/25 22:21:22;;;;;;;;;;;;;;;;;;6191422;23;19912;-84
2022/11/25 22:23:48;;;;;;;;;;;;;;;;;;6218222;23;19911;-84
2022/11/25 22:26:16;;;;;;;;;;;;;;;;;;6218010;23;19908;-84
2022/11/25 22:28:42;;;;;;;;;;;;;;;;;;6218114;23;19908;-85
2022/11/25 22:31:09;;;;;;;;;;;;;;;;;;6217977;23;19911;-84
2022/11/25 22:33:35;;;;;;;;;;;;;;;;;;6218034;23;19931;-84
2022/11/25 22:36:02;;;;;;;;;;;;;;;;;;6218334;23;19931;-84
2022/11/25 22:38:28;;;;;;;;;;;;;;;;;;6218115;23;20306;-85
2022/11/25 22:40:58;;;;;;;;;;;;;;;;;;6191200;23;19912;-84
2022/11/25 22:43:26;;;;;;;;;;;;;;;;;;6218137;23;19912;-84
2022/11/25 22:45:52;;;;;;;;;;;;;;;;;;6217852;23;20315;-84
2022/11/25 22:48:19;;;;;;;;;;;;;;;;;;6217862;23;19915;-85
2022/11/25 22:50:45;;;;;;;;;;;;;;;;;;6191034;23;20216;-85
2022/11/25 22:53:16;;;;;;;;;;;;;;;;;;6217967;23;19961;-86
2022/11/25 22:55:41;;;;;;;;;;;;;;;;;;6191134;23;19915;-86
2022/11/25 22:58:08;;;;;;;;;;;;;;;;;;6217516;23;19907;-86
2022/11/25 23:00:36;;;;;;;;;;;;;;;;;;6217729;23;19986;-86
2022/11/25 23:03:03;;;;;;;;;;;;;;;;;;6190920;23;19908;-86
2022/11/25 23:05:29;;;;;;;;;;;;;;;;;;6217715;23;19935;-86
2022/11/25 23:07:55;;;;;;;;;;;;;;;;;;6190788;23;19908;-85
2022/11/25 23:10:28;;;;;;;;;;;;;;;;;;6217756;23;20350;-86
2022/11/25 23:12:53;;;;;;;;;;;;;;;;;;6217513;23;19912;-85
2022/11/25 23:15:19;;;;;;;;;;;;;;;;;;6217568;23;20246;-85
2022/11/25 23:17:49;;;;;;;;;;;;;;;;;;6217323;23;19923;-86
2022/11/25 23:20:41;;;;;;;;;;;;;;;;;;6217719;23;19908;-85
2022/11/25 23:23:11;;;;;;;;;;;;;;;;;;6210175;23;19971;-85
2022/11/25 23:25:37;;;;;;;;;;;;;;;;;;6217333;23;20290;-84
2022/11/25 23:28:02;;;;;;;;;;;;;;;;;;6217401;23;19912;-85
2022/11/25 23:30:28;;;;;;;;;;;;;;;;;;6190798;23;19908;-85
2022/11/25 23:32:54;;;;;;;;;;;;;;;;;;6190704;23;19904;-85
2022/11/25 23:35:26;;;;;;;;;;;;;;;;;;6217389;23;19931;-86
2022/11/25 23:37:55;;;;;;;;;;;;;;;;;;6216672;23;20333;-86
2022/11/25 23:42:56;;;;;;;;;;;;;;;;;;6205616;23;19920;-87
2022/11/25 23:45:24;;;;;;;;;;;;;;;;;;6247640;23;19908;-87
2022/11/25 23:47:50;;;;;;;;;;;;;;;;;;6220768;23;19911;-84
